Aeroporto :
LOGIN :

Iscrizione | Disclaimer

   EN    FR    IT 

 










Sommario :    VFR   VFR Marginale   IFR   IFR Intensivo   IFR Molto Intensivo
Visibilità : 
Base nubi : 
>= 8 km
>= 3000ft
5 / 8 km
1000 / 3000 ft
1500m / 5 km
500 / 1000 ft
800 / 1500m
200 / 500 ft
< 800m
< 200 ft
Simboli :   Temporali  Nebbia  Neve Forte  Precipitazioni Forti  Vento > 20 kt
SIGMETs :   Varie  Temporali  Ghiacco  Turbolenza  Onda orograficha  Ceneri Vulcaniche






- Altitudine del aeroporto : 26 ft
- Codice IATA : GLA


EGPF - Glasgow

ULTIMO METAR :
  • 071250Z AUTO 21011G21KT 9999 SCT039 BKN046 13/05 Q1026

METARs OBSOLETI :
  • 071220Z AUTO 21013KT 9999 BKN038 BKN044 12/04 Q1026
  • 071150Z AUTO 22010KT 9999 BKN041 13/04 Q1026
  • 071120Z AUTO 21012KT 9999 BKN039 13/04 Q1027
  • 071050Z AUTO 21013KT 180V240 9999 FEW041 12/04 Q1027
  • 071020Z AUTO 22011KT 9999 NCD 11/04 Q1027

TAF TAF EGPF
Valido dal 07 a 12 ore il 08 a 12 ore UTC


071058Z 0712/0812 20009KT 9999 FEW035
PROB30
TEMPO 0712/0718 22015G25KT
PROB30
TEMPO 0811/0812 4000 RADZ BKN012
ATIS : +44 141 887 7449



MetMap, La meteo Aeronautica in un colpo d'occhio ! - Copyright ORBIFLY Dicembre 2007 - Disclaimer

ORBIFLY MET'MAP TEAM :

Programmazione e sviluppo : Alexandra Zaïnal
Concezione : Baudouin d'Aumeries
Aiuto per la programmazione : Marc-Olivier Méhu
Supporto tecnico e logistico : Manuel Goepfert
Aiuto per la traduzione : Arnaldo La Scala

Contatto : metmap@orbifly.com




FONTI E CREDITI :

   NOAA